sensor_id;sensor_type;location;lat;lon;timestamp;P1;durP1;ratioP1;P2;durP2;ratioP2
55931;SDS011;41837;55.700;37.984;2023-06-14T00:01:10;26.00;;;11.18;;
55931;SDS011;41837;55.700;37.984;2023-06-14T00:03:38;26.77;;;11.80;;
55931;SDS011;41837;55.700;37.984;2023-06-14T00:06:05;31.50;;;11.98;;
55931;SDS011;41837;55.700;37.984;2023-06-14T00:08:31;31.50;;;12.10;;
55931;SDS011;41837;55.700;37.984;2023-06-14T00:10:57;28.20;;;12.15;;
55931;SDS011;41837;55.700;37.984;2023-06-14T00:13:24;30.17;;;11.57;;
55931;SDS011;41837;55.700;37.984;2023-06-14T00:15:50;40.65;;;12.80;;
55931;SDS011;41837;55.700;37.984;2023-06-14T00:18:21;32.08;;;11.35;;
55931;SDS011;41837;55.700;37.984;2023-06-14T00:20:52;31.00;;;11.45;;
55931;SDS011;41837;55.700;37.984;2023-06-14T00:23:19;34.58;;;12.38;;
55931;SDS011;41837;55.700;37.984;2023-06-14T00:25:45;31.90;;;11.38;;
55931;SDS011;41837;55.700;37.984;2023-06-14T00:28:11;45.63;;;13.40;;
55931;SDS011;41837;55.700;37.984;2023-06-14T00:30:37;35.70;;;14.15;;
55931;SDS011;41837;55.700;37.984;2023-06-14T00:33:04;41.13;;;13.82;;
55931;SDS011;41837;55.700;37.984;2023-06-14T00:35:30;43.00;;;13.55;;
55931;SDS011;41837;55.700;37.984;2023-06-14T00:37:57;39.90;;;13.82;;
55931;SDS011;41837;55.700;37.984;2023-06-14T00:40:23;38.45;;;13.32;;
55931;SDS011;41837;55.700;37.984;2023-06-14T00:42:49;37.88;;;13.30;;
55931;SDS011;41837;55.700;37.984;2023-06-14T00:45:15;37.40;;;13.50;;
55931;SDS011;41837;55.700;37.984;2023-06-14T00:47:42;47.08;;;16.15;;
55931;SDS011;41837;55.700;37.984;2023-06-14T00:50:09;40.42;;;16.45;;
55931;SDS011;41837;55.700;37.984;2023-06-14T00:52:37;46.95;;;17.65;;
55931;SDS011;41837;55.700;37.984;2023-06-14T00:55:04;45.38;;;17.10;;
55931;SDS011;41837;55.700;37.984;2023-06-14T00:57:31;42.42;;;16.08;;
55931;SDS011;41837;55.700;37.984;2023-06-14T00:59:58;39.85;;;15.80;;
55931;SDS011;41837;55.700;37.984;2023-06-14T01:02:26;40.63;;;16.17;;
55931;SDS011;41837;55.700;37.984;2023-06-14T01:04:52;31.38;;;16.13;;
55931;SDS011;41837;55.700;37.984;2023-06-14T01:07:25;40.75;;;16.95;;
55931;SDS011;41837;55.700;37.984;2023-06-14T01:10:18;44.53;;;18.83;;
55931;SDS011;41837;55.700;37.984;2023-06-14T01:15:25;44.88;;;23.38;;
55931;SDS011;41837;55.700;37.984;2023-06-14T01:17:54;46.22;;;20.85;;
55931;SDS011;41837;55.700;37.984;2023-06-14T01:20:29;49.08;;;22.45;;
55931;SDS011;41837;55.700;37.984;2023-06-14T01:22:57;48.38;;;21.48;;
55931;SDS011;41837;55.700;37.984;2023-06-14T01:25:24;44.85;;;21.67;;
55931;SDS011;41837;55.700;37.984;2023-06-14T01:27:53;47.13;;;20.85;;
55931;SDS011;41837;55.700;37.984;2023-06-14T01:30:20;43.20;;;21.38;;
55931;SDS011;41837;55.700;37.984;2023-06-14T01:32:48;38.75;;;21.80;;
55931;SDS011;41837;55.700;37.984;2023-06-14T01:35:18;44.72;;;20.20;;
55931;SDS011;41837;55.700;37.984;2023-06-14T01:37:46;42.35;;;20.48;;
55931;SDS011;41837;55.700;37.984;2023-06-14T01:40:14;42.42;;;19.52;;
55931;SDS011;41837;55.700;37.984;2023-06-14T01:42:43;35.05;;;18.73;;
55931;SDS011;41837;55.700;37.984;2023-06-14T01:45:11;34.63;;;17.58;;
55931;SDS011;41837;55.700;37.984;2023-06-14T01:47:38;40.50;;;16.83;;
55931;SDS011;41837;55.700;37.984;2023-06-14T01:50:05;38.55;;;16.98;;
55931;SDS011;41837;55.700;37.984;2023-06-14T01:52:31;32.80;;;17.25;;
55931;SDS011;41837;55.700;37.984;2023-06-14T01:54:57;37.25;;;17.48;;
55931;SDS011;41837;55.700;37.984;2023-06-14T01:57:24;37.47;;;17.35;;
55931;SDS011;41837;55.700;37.984;2023-06-14T01:59:52;38.72;;;17.05;;
55931;SDS011;41837;55.700;37.984;2023-06-14T02:02:18;35.40;;;17.10;;
55931;SDS011;41837;55.700;37.984;2023-06-14T02:04:45;34.05;;;16.73;;
55931;SDS011;41837;55.700;37.984;2023-06-14T02:07:13;34.03;;;16.70;;
55931;SDS011;41837;55.700;37.984;2023-06-14T02:09:41;32.58;;;16.17;;
55931;SDS011;41837;55.700;37.984;2023-06-14T02:12:07;30.05;;;15.52;;
55931;SDS011;41837;55.700;37.984;2023-06-14T02:14:34;32.83;;;16.13;;
55931;SDS011;41837;55.700;37.984;2023-06-14T02:17:01;34.22;;;16.95;;
55931;SDS011;41837;55.700;37.984;2023-06-14T02:19:28;31.60;;;16.75;;
55931;SDS011;41837;55.700;37.984;2023-06-14T02:21:54;29.00;;;15.30;;
55931;SDS011;41837;55.700;37.984;2023-06-14T02:24:20;30.27;;;15.93;;
55931;SDS011;41837;55.700;37.984;2023-06-14T02:26:46;40.33;;;17.35;;
55931;SDS011;41837;55.700;37.984;2023-06-14T02:29:14;42.47;;;18.35;;
55931;SDS011;41837;55.700;37.984;2023-06-14T02:31:41;31.60;;;16.45;;
55931;SDS011;41837;55.700;37.984;2023-06-14T02:34:07;36.42;;;17.50;;
55931;SDS011;41837;55.700;37.984;2023-06-14T02:36:36;38.58;;;17.38;;
55931;SDS011;41837;55.700;37.984;2023-06-14T02:39:08;45.28;;;18.33;;
55931;SDS011;41837;55.700;37.984;2023-06-14T02:41:37;33.53;;;18.42;;
55931;SDS011;41837;55.700;37.984;2023-06-14T02:44:04;39.65;;;18.05;;
55931;SDS011;41837;55.700;37.984;2023-06-14T02:46:31;35.85;;;18.40;;
55931;SDS011;41837;55.700;37.984;2023-06-14T02:48:58;42.50;;;19.77;;
55931;SDS011;41837;55.700;37.984;2023-06-14T02:51:25;50.30;;;20.42;;
55931;SDS011;41837;55.700;37.984;2023-06-14T02:53:51;50.60;;;21.15;;
55931;SDS011;41837;55.700;37.984;2023-06-14T02:56:18;48.60;;;22.73;;
55931;SDS011;41837;55.700;37.984;2023-06-14T02:58:45;53.35;;;23.02;;
55931;SDS011;41837;55.700;37.984;2023-06-14T03:01:14;44.45;;;21.40;;
55931;SDS011;41837;55.700;37.984;2023-06-14T03:03:41;45.53;;;20.70;;
55931;SDS011;41837;55.700;37.984;2023-06-14T03:06:08;38.63;;;20.02;;
55931;SDS011;41837;55.700;37.984;2023-06-14T03:08:36;35.15;;;17.50;;
55931;SDS011;41837;55.700;37.984;2023-06-14T03:11:09;33.53;;;16.33;;
55931;SDS011;41837;55.700;37.984;2023-06-14T03:13:36;37.60;;;16.48;;
55931;SDS011;41837;55.700;37.984;2023-06-14T03:16:04;27.10;;;14.88;;
55931;SDS011;41837;55.700;37.984;2023-06-14T03:18:34;27.58;;;16.95;;
55931;SDS011;41837;55.700;37.984;2023-06-14T03:21:02;34.15;;;17.25;;
55931;SDS011;41837;55.700;37.984;2023-06-14T03:23:30;31.20;;;17.25;;
55931;SDS011;41837;55.700;37.984;2023-06-14T03:25:57;27.27;;;17.58;;
55931;SDS011;41837;55.700;37.984;2023-06-14T03:28:23;36.08;;;17.60;;
55931;SDS011;41837;55.700;37.984;2023-06-14T03:30:50;35.70;;;17.17;;
55931;SDS011;41837;55.700;37.984;2023-06-14T03:33:17;28.00;;;15.57;;
55931;SDS011;41837;55.700;37.984;2023-06-14T03:35:44;27.77;;;14.80;;
55931;SDS011;41837;55.700;37.984;2023-06-14T03:38:10;33.83;;;19.50;;
55931;SDS011;41837;55.700;37.984;2023-06-14T03:40:36;32.22;;;19.63;;
55931;SDS011;41837;55.700;37.984;2023-06-14T03:43:05;36.25;;;18.27;;
55931;SDS011;41837;55.700;37.984;2023-06-14T03:45:31;31.75;;;17.75;;
55931;SDS011;41837;55.700;37.984;2023-06-14T03:47:58;24.75;;;15.38;;
55931;SDS011;41837;55.700;37.984;2023-06-14T03:50:27;35.33;;;15.52;;
55931;SDS011;41837;55.700;37.984;2023-06-14T03:52:54;24.80;;;14.95;;
55931;SDS011;41837;55.700;37.984;2023-06-14T03:55:22;25.45;;;14.25;;
55931;SDS011;41837;55.700;37.984;2023-06-14T03:57:51;19.08;;;9.90;;
55931;SDS011;41837;55.700;37.984;2023-06-14T04:00:17;14.85;;;7.88;;
55931;SDS011;41837;55.700;37.984;2023-06-14T04:02:44;17.55;;;7.95;;
55931;SDS011;41837;55.700;37.984;2023-06-14T04:05:10;19.42;;;7.82;;
55931;SDS011;41837;55.700;37.984;2023-06-14T04:07:42;16.38;;;7.15;;
55931;SDS011;41837;55.700;37.984;2023-06-14T04:10:14;11.80;;;6.00;;
55931;SDS011;41837;55.700;37.984;2023-06-14T04:12:42;13.98;;;6.43;;
55931;SDS011;41837;55.700;37.984;2023-06-14T04:15:08;13.20;;;6.13;;
55931;SDS011;41837;55.700;37.984;2023-06-14T04:17:36;10.98;;;6.50;;
55931;SDS011;41837;55.700;37.984;2023-06-14T04:20:04;16.55;;;6.63;;
55931;SDS011;41837;55.700;37.984;2023-06-14T04:22:32;18.58;;;6.55;;
55931;SDS011;41837;55.700;37.984;2023-06-14T04:24:59;21.38;;;6.63;;
55931;SDS011;41837;55.700;37.984;2023-06-14T04:27:28;11.13;;;6.85;;
55931;SDS011;41837;55.700;37.984;2023-06-14T04:29:59;12.30;;;6.57;;
55931;SDS011;41837;55.700;37.984;2023-06-14T04:32:36;12.32;;;6.15;;
55931;SDS011;41837;55.700;37.984;2023-06-14T04:35:07;14.68;;;6.43;;
55931;SDS011;41837;55.700;37.984;2023-06-14T04:37:35;16.15;;;7.25;;
55931;SDS011;41837;55.700;37.984;2023-06-14T04:40:06;13.43;;;6.38;;
55931;SDS011;41837;55.700;37.984;2023-06-14T04:42:34;11.40;;;5.78;;
55931;SDS011;41837;55.700;37.984;2023-06-14T04:45:05;15.90;;;5.60;;
55931;SDS011;41837;55.700;37.984;2023-06-14T04:47:32;11.50;;;5.28;;
55931;SDS011;41837;55.700;37.984;2023-06-14T04:50:00;11.90;;;4.97;;
55931;SDS011;41837;55.700;37.984;2023-06-14T04:52:29;10.75;;;5.60;;
55931;SDS011;41837;55.700;37.984;2023-06-14T04:54:57;14.43;;;5.00;;
55931;SDS011;41837;55.700;37.984;2023-06-14T04:57:24;13.07;;;5.78;;
55931;SDS011;41837;55.700;37.984;2023-06-14T04:59:54;7.03;;;4.90;;
55931;SDS011;41837;55.700;37.984;2023-06-14T05:02:21;8.57;;;4.82;;
55931;SDS011;41837;55.700;37.984;2023-06-14T05:05:02;15.65;;;5.70;;
55931;SDS011;41837;55.700;37.984;2023-06-14T05:07:36;13.07;;;4.93;;
55931;SDS011;41837;55.700;37.984;2023-06-14T05:10:03;11.55;;;5.20;;
55931;SDS011;41837;55.700;37.984;2023-06-14T05:12:30;11.48;;;4.88;;
55931;SDS011;41837;55.700;37.984;2023-06-14T05:15:15;6.93;;;4.15;;
55931;SDS011;41837;55.700;37.984;2023-06-14T05:17:42;12.35;;;4.55;;
55931;SDS011;41837;55.700;37.984;2023-06-14T05:20:09;9.15;;;4.28;;
55931;SDS011;41837;55.700;37.984;2023-06-14T05:22:36;13.90;;;4.40;;
55931;SDS011;41837;55.700;37.984;2023-06-14T05:25:02;10.32;;;4.43;;
55931;SDS011;41837;55.700;37.984;2023-06-14T05:27:29;9.93;;;3.90;;
55931;SDS011;41837;55.700;37.984;2023-06-14T05:29:55;9.32;;;4.35;;
55931;SDS011;41837;55.700;37.984;2023-06-14T05:32:24;12.63;;;4.85;;
55931;SDS011;41837;55.700;37.984;2023-06-14T05:34:50;12.43;;;4.18;;
55931;SDS011;41837;55.700;37.984;2023-06-14T05:37:16;6.15;;;3.72;;
55931;SDS011;41837;55.700;37.984;2023-06-14T05:39:43;12.52;;;3.60;;
55931;SDS011;41837;55.700;37.984;2023-06-14T05:42:09;6.28;;;3.17;;
55931;SDS011;41837;55.700;37.984;2023-06-14T05:44:36;5.70;;;3.42;;
55931;SDS011;41837;55.700;37.984;2023-06-14T05:47:02;8.15;;;3.30;;
55931;SDS011;41837;55.700;37.984;2023-06-14T05:49:28;10.07;;;3.00;;
55931;SDS011;41837;55.700;37.984;2023-06-14T05:51:54;9.77;;;3.10;;
55931;SDS011;41837;55.700;37.984;2023-06-14T05:54:20;8.85;;;2.70;;
55931;SDS011;41837;55.700;37.984;2023-06-14T05:56:47;8.52;;;3.22;;
55931;SDS011;41837;55.700;37.984;2023-06-14T05:59:13;11.13;;;3.05;;
55931;SDS011;41837;55.700;37.984;2023-06-14T06:01:40;9.25;;;2.53;;
55931;SDS011;41837;55.700;37.984;2023-06-14T06:04:07;6.60;;;2.70;;
55931;SDS011;41837;55.700;37.984;2023-06-14T06:06:34;8.18;;;2.67;;
55931;SDS011;41837;55.700;37.984;2023-06-14T06:09:01;9.98;;;2.63;;
55931;SDS011;41837;55.700;37.984;2023-06-14T06:11:28;8.30;;;3.10;;
55931;SDS011;41837;55.700;37.984;2023-06-14T06:13:54;10.77;;;3.10;;
55931;SDS011;41837;55.700;37.984;2023-06-14T06:16:20;7.22;;;3.40;;
55931;SDS011;41837;55.700;37.984;2023-06-14T06:18:46;10.82;;;2.65;;
55931;SDS011;41837;55.700;37.984;2023-06-14T06:21:12;12.43;;;2.90;;
55931;SDS011;41837;55.700;37.984;2023-06-14T06:23:39;17.90;;;5.10;;
55931;SDS011;41837;55.700;37.984;2023-06-14T06:26:05;18.67;;;5.45;;
55931;SDS011;41837;55.700;37.984;2023-06-14T06:28:31;15.85;;;4.43;;
55931;SDS011;41837;55.700;37.984;2023-06-14T06:30:58;6.90;;;2.58;;
55931;SDS011;41837;55.700;37.984;2023-06-14T06:33:25;7.78;;;2.53;;
55931;SDS011;41837;55.700;37.984;2023-06-14T06:35:51;7.78;;;2.42;;
55931;SDS011;41837;55.700;37.984;2023-06-14T06:38:18;7.75;;;2.47;;
55931;SDS011;41837;55.700;37.984;2023-06-14T06:40:45;5.10;;;2.58;;
55931;SDS011;41837;55.700;37.984;2023-06-14T06:43:12;8.10;;;2.58;;
55931;SDS011;41837;55.700;37.984;2023-06-14T06:45:47;9.88;;;2.50;;
55931;SDS011;41837;55.700;37.984;2023-06-14T06:48:13;6.82;;;2.72;;
55931;SDS011;41837;55.700;37.984;2023-06-14T06:50:39;13.63;;;3.28;;
55931;SDS011;41837;55.700;37.984;2023-06-14T06:53:05;11.80;;;3.40;;
55931;SDS011;41837;55.700;37.984;2023-06-14T06:55:32;7.35;;;2.88;;
55931;SDS011;41837;55.700;37.984;2023-06-14T06:57:59;6.03;;;2.50;;
55931;SDS011;41837;55.700;37.984;2023-06-14T07:00:26;9.32;;;3.15;;
55931;SDS011;41837;55.700;37.984;2023-06-14T07:02:53;9.13;;;3.20;;
55931;SDS011;41837;55.700;37.984;2023-06-14T07:05:20;6.43;;;2.92;;
55931;SDS011;41837;55.700;37.984;2023-06-14T07:07:47;10.23;;;3.10;;
55931;SDS011;41837;55.700;37.984;2023-06-14T07:10:13;8.15;;;2.67;;
55931;SDS011;41837;55.700;37.984;2023-06-14T07:12:39;6.85;;;2.35;;
55931;SDS011;41837;55.700;37.984;2023-06-14T07:15:08;10.27;;;2.75;;
55931;SDS011;41837;55.700;37.984;2023-06-14T07:17:35;11.05;;;4.20;;
55931;SDS011;41837;55.700;37.984;2023-06-14T07:20:02;7.72;;;2.95;;
55931;SDS011;41837;55.700;37.984;2023-06-14T07:22:34;7.70;;;2.58;;
55931;SDS011;41837;55.700;37.984;2023-06-14T07:25:00;7.00;;;2.42;;
55931;SDS011;41837;55.700;37.984;2023-06-14T07:27:27;12.23;;;3.08;;
55931;SDS011;41837;55.700;37.984;2023-06-14T07:29:55;9.52;;;3.45;;
55931;SDS011;41837;55.700;37.984;2023-06-14T07:32:21;9.15;;;2.50;;
55931;SDS011;41837;55.700;37.984;2023-06-14T07:34:48;8.40;;;2.33;;
55931;SDS011;41837;55.700;37.984;2023-06-14T07:37:14;5.85;;;2.70;;
55931;SDS011;41837;55.700;37.984;2023-06-14T07:39:40;5.20;;;2.47;;
55931;SDS011;41837;55.700;37.984;2023-06-14T07:42:07;12.60;;;2.80;;
55931;SDS011;41837;55.700;37.984;2023-06-14T07:44:58;7.70;;;2.35;;
55931;SDS011;41837;55.700;37.984;2023-06-14T07:47:27;9.93;;;2.70;;
55931;SDS011;41837;55.700;37.984;2023-06-14T07:49:53;10.90;;;2.72;;
55931;SDS011;41837;55.700;37.984;2023-06-14T07:52:20;7.50;;;2.38;;
55931;SDS011;41837;55.700;37.984;2023-06-14T07:54:46;7.82;;;3.42;;
55931;SDS011;41837;55.700;37.984;2023-06-14T07:57:13;7.07;;;2.60;;
55931;SDS011;41837;55.700;37.984;2023-06-14T07:59:40;5.78;;;2.35;;
55931;SDS011;41837;55.700;37.984;2023-06-14T08:02:06;7.95;;;2.75;;
55931;SDS011;41837;55.700;37.984;2023-06-14T08:04:32;5.32;;;2.83;;
55931;SDS011;41837;55.700;37.984;2023-06-14T08:06:59;6.68;;;2.30;;
55931;SDS011;41837;55.700;37.984;2023-06-14T08:09:26;4.90;;;2.63;;
55931;SDS011;41837;55.700;37.984;2023-06-14T08:11:54;6.93;;;2.50;;
55931;SDS011;41837;55.700;37.984;2023-06-14T08:14:21;8.38;;;3.00;;
55931;SDS011;41837;55.700;37.984;2023-06-14T08:16:48;3.92;;;2.40;;
55931;SDS011;41837;55.700;37.984;2023-06-14T08:19:14;10.90;;;3.28;;
55931;SDS011;41837;55.700;37.984;2023-06-14T08:22:04;11.82;;;3.10;;
55931;SDS011;41837;55.700;37.984;2023-06-14T08:24:31;17.42;;;3.05;;
55931;SDS011;41837;55.700;37.984;2023-06-14T08:26:58;12.32;;;3.10;;
55931;SDS011;41837;55.700;37.984;2023-06-14T08:29:26;8.68;;;2.30;;
55931;SDS011;41837;55.700;37.984;2023-06-14T08:31:54;8.30;;;3.10;;
55931;SDS011;41837;55.700;37.984;2023-06-14T08:34:21;10.77;;;2.92;;
55931;SDS011;41837;55.700;37.984;2023-06-14T08:36:52;5.60;;;2.60;;
55931;SDS011;41837;55.700;37.984;2023-06-14T08:39:18;6.63;;;2.30;;
55931;SDS011;41837;55.700;37.984;2023-06-14T08:41:45;5.07;;;2.40;;
55931;SDS011;41837;55.700;37.984;2023-06-14T08:44:15;7.35;;;2.70;;
55931;SDS011;41837;55.700;37.984;2023-06-14T08:46:42;6.60;;;2.95;;
55931;SDS011;41837;55.700;37.984;2023-06-14T08:49:11;11.73;;;3.00;;
55931;SDS011;41837;55.700;37.984;2023-06-14T08:51:38;10.02;;;3.05;;
55931;SDS011;41837;55.700;37.984;2023-06-14T08:54:06;11.77;;;3.03;;
55931;SDS011;41837;55.700;37.984;2023-06-14T08:56:32;10.43;;;2.80;;
55931;SDS011;41837;55.700;37.984;2023-06-14T08:59:00;12.75;;;3.20;;
55931;SDS011;41837;55.700;37.984;2023-06-14T09:01:34;5.30;;;2.35;;
55931;SDS011;41837;55.700;37.984;2023-06-14T09:04:02;6.93;;;2.78;;
55931;SDS011;41837;55.700;37.984;2023-06-14T09:06:31;5.10;;;2.53;;
55931;SDS011;41837;55.700;37.984;2023-06-14T09:08:58;3.90;;;2.60;;
55931;SDS011;41837;55.700;37.984;2023-06-14T09:11:24;6.28;;;2.65;;
55931;SDS011;41837;55.700;37.984;2023-06-14T09:13:52;7.55;;;3.00;;
55931;SDS011;41837;55.700;37.984;2023-06-14T09:16:18;4.25;;;2.72;;
55931;SDS011;41837;55.700;37.984;2023-06-14T09:18:45;7.85;;;3.28;;
55931;SDS011;41837;55.700;37.984;2023-06-14T09:21:16;7.88;;;2.70;;
55931;SDS011;41837;55.700;37.984;2023-06-14T09:23:44;6.30;;;2.85;;
55931;SDS011;41837;55.700;37.984;2023-06-14T09:26:11;7.30;;;2.63;;
55931;SDS011;41837;55.700;37.984;2023-06-14T09:28:43;10.95;;;3.10;;
55931;SDS011;41837;55.700;37.984;2023-06-14T09:31:21;11.93;;;3.25;;
55931;SDS011;41837;55.700;37.984;2023-06-14T09:33:48;6.57;;;3.38;;
55931;SDS011;41837;55.700;37.984;2023-06-14T09:36:21;8.43;;;3.10;;
55931;SDS011;41837;55.700;37.984;2023-06-14T09:39:02;7.00;;;2.83;;
55931;SDS011;41837;55.700;37.984;2023-06-14T09:41:37;8.93;;;2.70;;
55931;SDS011;41837;55.700;37.984;2023-06-14T09:44:16;7.07;;;2.60;;
55931;SDS011;41837;55.700;37.984;2023-06-14T09:46:43;6.65;;;3.00;;
55931;SDS011;41837;55.700;37.984;2023-06-14T09:49:10;6.47;;;3.40;;
55931;SDS011;41837;55.700;37.984;2023-06-14T09:51:42;6.03;;;2.67;;
55931;SDS011;41837;55.700;37.984;2023-06-14T09:54:12;9.43;;;2.83;;
55931;SDS011;41837;55.700;37.984;2023-06-14T09:56:44;7.88;;;3.15;;
55931;SDS011;41837;55.700;37.984;2023-06-14T09:59:11;9.18;;;2.97;;
55931;SDS011;41837;55.700;37.984;2023-06-14T10:01:42;7.65;;;2.83;;
55931;SDS011;41837;55.700;37.984;2023-06-14T10:04:10;5.18;;;2.40;;
55931;SDS011;41837;55.700;37.984;2023-06-14T10:06:39;8.25;;;2.80;;
55931;SDS011;41837;55.700;37.984;2023-06-14T10:09:08;5.40;;;2.47;;
55931;SDS011;41837;55.700;37.984;2023-06-14T10:11:38;5.30;;;2.70;;
55931;SDS011;41837;55.700;37.984;2023-06-14T10:14:10;8.20;;;2.78;;
55931;SDS011;41837;55.700;37.984;2023-06-14T10:19:32;6.93;;;2.50;;
55931;SDS011;41837;55.700;37.984;2023-06-14T10:22:19;6.53;;;2.70;;
55931;SDS011;41837;55.700;37.984;2023-06-14T10:24:52;8.73;;;2.88;;
55931;SDS011;41837;55.700;37.984;2023-06-14T10:27:18;10.20;;;2.85;;
55931;SDS011;41837;55.700;37.984;2023-06-14T10:32:18;6.90;;;2.60;;
55931;SDS011;41837;55.700;37.984;2023-06-14T10:34:45;7.47;;;3.25;;
55931;SDS011;41837;55.700;37.984;2023-06-14T10:37:12;7.97;;;2.90;;
55931;SDS011;41837;55.700;37.984;2023-06-14T10:39:40;5.70;;;2.55;;
55931;SDS011;41837;55.700;37.984;2023-06-14T10:42:08;7.78;;;2.78;;
55931;SDS011;41837;55.700;37.984;2023-06-14T10:44:39;7.82;;;3.33;;
55931;SDS011;41837;55.700;37.984;2023-06-14T10:47:23;5.15;;;2.50;;
55931;SDS011;41837;55.700;37.984;2023-06-14T10:50:10;4.43;;;2.35;;
55931;SDS011;41837;55.700;37.984;2023-06-14T10:52:41;3.78;;;2.30;;
55931;SDS011;41837;55.700;37.984;2023-06-14T10:57:42;4.83;;;2.50;;
55931;SDS011;41837;55.700;37.984;2023-06-14T11:00:12;7.40;;;3.30;;
55931;SDS011;41837;55.700;37.984;2023-06-14T11:11:09;11.32;;;3.22;;
55931;SDS011;41837;55.700;37.984;2023-06-14T11:13:41;11.40;;;3.00;;
55931;SDS011;41837;55.700;37.984;2023-06-14T11:16:14;13.88;;;3.55;;
55931;SDS011;41837;55.700;37.984;2023-06-14T11:18:42;11.95;;;3.67;;
55931;SDS011;41837;55.700;37.984;2023-06-14T11:21:11;7.97;;;2.83;;
55931;SDS011;41837;55.700;37.984;2023-06-14T11:23:37;5.32;;;2.53;;
55931;SDS011;41837;55.700;37.984;2023-06-14T11:26:03;6.45;;;2.83;;
55931;SDS011;41837;55.700;37.984;2023-06-14T11:28:39;6.75;;;2.80;;
55931;SDS011;41837;55.700;37.984;2023-06-14T11:31:07;5.95;;;2.30;;
55931;SDS011;41837;55.700;37.984;2023-06-14T11:33:33;7.95;;;3.92;;
55931;SDS011;41837;55.700;37.984;2023-06-14T11:36:03;6.78;;;2.63;;
55931;SDS011;41837;55.700;37.984;2023-06-14T11:38:40;5.13;;;2.63;;
55931;SDS011;41837;55.700;37.984;2023-06-14T11:41:06;11.40;;;2.67;;
55931;SDS011;41837;55.700;37.984;2023-06-14T11:43:32;6.72;;;2.30;;
55931;SDS011;41837;55.700;37.984;2023-06-14T11:46:00;12.05;;;2.50;;
55931;SDS011;41837;55.700;37.984;2023-06-14T11:48:40;5.82;;;2.70;;
55931;SDS011;41837;55.700;37.984;2023-06-14T11:51:08;6.07;;;2.90;;
55931;SDS011;41837;55.700;37.984;2023-06-14T11:53:34;6.03;;;2.70;;
55931;SDS011;41837;55.700;37.984;2023-06-14T11:56:01;5.72;;;2.78;;
55931;SDS011;41837;55.700;37.984;2023-06-14T11:58:29;9.90;;;2.65;;
55931;SDS011;41837;55.700;37.984;2023-06-14T12:00:55;5.20;;;2.90;;
55931;SDS011;41837;55.700;37.984;2023-06-14T12:03:22;9.32;;;2.80;;
55931;SDS011;41837;55.700;37.984;2023-06-14T12:06:04;5.10;;;2.60;;
55931;SDS011;41837;55.700;37.984;2023-06-14T12:08:35;5.63;;;2.72;;
55931;SDS011;41837;55.700;37.984;2023-06-14T12:13:39;4.05;;;2.63;;
55931;SDS011;41837;55.700;37.984;2023-06-14T12:16:09;10.82;;;3.20;;
55931;SDS011;41837;55.700;37.984;2023-06-14T12:18:37;9.27;;;2.90;;
55931;SDS011;41837;55.700;37.984;2023-06-14T12:21:11;5.95;;;2.42;;
55931;SDS011;41837;55.700;37.984;2023-06-14T12:23:38;8.90;;;2.67;;
55931;SDS011;41837;55.700;37.984;2023-06-14T12:26:06;7.57;;;2.90;;
55931;SDS011;41837;55.700;37.984;2023-06-14T12:28:32;5.38;;;2.63;;
55931;SDS011;41837;55.700;37.984;2023-06-14T12:30:58;13.35;;;3.28;;
55931;SDS011;41837;55.700;37.984;2023-06-14T12:33:25;10.60;;;2.17;;
55931;SDS011;41837;55.700;37.984;2023-06-14T12:35:54;10.02;;;2.50;;
55931;SDS011;41837;55.700;37.984;2023-06-14T12:38:23;13.38;;;3.08;;
55931;SDS011;41837;55.700;37.984;2023-06-14T12:40:50;5.07;;;2.67;;
55931;SDS011;41837;55.700;37.984;2023-06-14T12:43:16;3.13;;;2.30;;
55931;SDS011;41837;55.700;37.984;2023-06-14T12:45:42;8.93;;;2.47;;
55931;SDS011;41837;55.700;37.984;2023-06-14T12:48:08;9.25;;;2.90;;
55931;SDS011;41837;55.700;37.984;2023-06-14T12:50:34;6.22;;;2.70;;
55931;SDS011;41837;55.700;37.984;2023-06-14T12:53:01;10.70;;;2.78;;
55931;SDS011;41837;55.700;37.984;2023-06-14T12:55:27;16.10;;;3.20;;
55931;SDS011;41837;55.700;37.984;2023-06-14T12:57:53;5.55;;;2.58;;
55931;SDS011;41837;55.700;37.984;2023-06-14T13:00:20;6.43;;;2.10;;
55931;SDS011;41837;55.700;37.984;2023-06-14T13:02:48;4.45;;;2.22;;
55931;SDS011;41837;55.700;37.984;2023-06-14T13:05:14;3.88;;;2.60;;
55931;SDS011;41837;55.700;37.984;2023-06-14T13:07:41;6.78;;;2.80;;
55931;SDS011;41837;55.700;37.984;2023-06-14T13:10:08;7.65;;;2.90;;
55931;SDS011;41837;55.700;37.984;2023-06-14T13:12:35;7.45;;;2.78;;
55931;SDS011;41837;55.700;37.984;2023-06-14T13:15:13;8.82;;;2.35;;
55931;SDS011;41837;55.700;37.984;2023-06-14T13:17:39;7.53;;;2.20;;
55931;SDS011;41837;55.700;37.984;2023-06-14T13:20:06;8.40;;;2.55;;
55931;SDS011;41837;55.700;37.984;2023-06-14T13:22:34;10.48;;;2.90;;
55931;SDS011;41837;55.700;37.984;2023-06-14T13:25:01;9.63;;;3.00;;
55931;SDS011;41837;55.700;37.984;2023-06-14T13:27:28;13.15;;;2.80;;
55931;SDS011;41837;55.700;37.984;2023-06-14T13:29:54;10.38;;;2.75;;
55931;SDS011;41837;55.700;37.984;2023-06-14T13:32:21;4.20;;;2.30;;
55931;SDS011;41837;55.700;37.984;2023-06-14T13:35:00;7.15;;;2.50;;
55931;SDS011;41837;55.700;37.984;2023-06-14T13:37:26;6.82;;;2.50;;
55931;SDS011;41837;55.700;37.984;2023-06-14T13:39:52;6.03;;;2.38;;
55931;SDS011;41837;55.700;37.984;2023-06-14T13:42:20;6.28;;;2.63;;
55931;SDS011;41837;55.700;37.984;2023-06-14T13:44:58;4.90;;;2.40;;
55931;SDS011;41837;55.700;37.984;2023-06-14T13:47:24;5.35;;;2.10;;
55931;SDS011;41837;55.700;37.984;2023-06-14T13:49:50;5.20;;;2.17;;
55931;SDS011;41837;55.700;37.984;2023-06-14T13:52:16;4.30;;;2.40;;
55931;SDS011;41837;55.700;37.984;2023-06-14T13:54:55;11.18;;;2.75;;
55931;SDS011;41837;55.700;37.984;2023-06-14T13:57:21;6.78;;;2.17;;
55931;SDS011;41837;55.700;37.984;2023-06-14T13:59:48;8.27;;;2.70;;
55931;SDS011;41837;55.700;37.984;2023-06-14T14:02:30;4.68;;;2.17;;
55931;SDS011;41837;55.700;37.984;2023-06-14T14:04:57;5.28;;;2.30;;
55931;SDS011;41837;55.700;37.984;2023-06-14T14:07:35;14.05;;;2.53;;
55931;SDS011;41837;55.700;37.984;2023-06-14T14:10:02;8.82;;;2.80;;
55931;SDS011;41837;55.700;37.984;2023-06-14T14:12:29;8.45;;;2.72;;
55931;SDS011;41837;55.700;37.984;2023-06-14T14:14:55;4.57;;;2.53;;
55931;SDS011;41837;55.700;37.984;2023-06-14T14:17:21;8.73;;;2.40;;
55931;SDS011;41837;55.700;37.984;2023-06-14T14:19:48;5.57;;;2.58;;
55931;SDS011;41837;55.700;37.984;2023-06-14T14:22:14;8.52;;;2.28;;
55931;SDS011;41837;55.700;37.984;2023-06-14T14:24:41;6.10;;;2.20;;
55931;SDS011;41837;55.700;37.984;2023-06-14T14:27:19;9.85;;;2.88;;
55931;SDS011;41837;55.700;37.984;2023-06-14T14:29:45;6.40;;;2.40;;
55931;SDS011;41837;55.700;37.984;2023-06-14T14:32:11;4.72;;;2.30;;
55931;SDS011;41837;55.700;37.984;2023-06-14T14:34:52;5.38;;;2.60;;
55931;SDS011;41837;55.700;37.984;2023-06-14T14:37:19;6.35;;;2.70;;
55931;SDS011;41837;55.700;37.984;2023-06-14T14:39:57;5.05;;;2.50;;
55931;SDS011;41837;55.700;37.984;2023-06-14T14:42:23;4.03;;;2.35;;
55931;SDS011;41837;55.700;37.984;2023-06-14T14:44:49;8.48;;;2.13;;
55931;SDS011;41837;55.700;37.984;2023-06-14T14:47:16;10.75;;;2.83;;
55931;SDS011;41837;55.700;37.984;2023-06-14T14:49:42;9.30;;;2.65;;
55931;SDS011;41837;55.700;37.984;2023-06-14T14:52:09;6.10;;;2.40;;